sensor_id;sensor_type;location;lat;lon;timestamp;temperature;humidity
9760;DHT22;4919;48.792;9.202;2023-04-16T00:00:40;9.30;1.00
9760;DHT22;4919;48.792;9.202;2023-04-16T00:03:25;9.30;1.00
9760;DHT22;4919;48.792;9.202;2023-04-16T00:06:10;9.30;1.00
9760;DHT22;4919;48.792;9.202;2023-04-16T00:08:55;9.40;1.00
9760;DHT22;4919;48.792;9.202;2023-04-16T00:11:40;9.40;1.00
9760;DHT22;4919;48.792;9.202;2023-04-16T00:14:25;9.50;1.00
9760;DHT22;4919;48.792;9.202;2023-04-16T00:17:09;9.50;1.00
9760;DHT22;4919;48.792;9.202;2023-04-16T00:19:54;9.50;1.00
9760;DHT22;4919;48.792;9.202;2023-04-16T00:22:39;9.50;1.00
9760;DHT22;4919;48.792;9.202;2023-04-16T00:25:24;9.50;1.00
9760;DHT22;4919;48.792;9.202;2023-04-16T00:28:09;9.50;1.00
9760;DHT22;4919;48.792;9.202;2023-04-16T00:30:54;9.50;1.00
9760;DHT22;4919;48.792;9.202;2023-04-16T00:33:39;9.60;1.00
9760;DHT22;4919;48.792;9.202;2023-04-16T00:36:24;9.50;1.00
9760;DHT22;4919;48.792;9.202;2023-04-16T00:39:09;9.50;1.00
9760;DHT22;4919;48.792;9.202;2023-04-16T00:41:54;9.50;1.00
9760;DHT22;4919;48.792;9.202;2023-04-16T00:44:39;9.50;1.00
9760;DHT22;4919;48.792;9.202;2023-04-16T00:47:23;9.50;1.00
9760;DHT22;4919;48.792;9.202;2023-04-16T00:50:09;9.50;1.00
9760;DHT22;4919;48.792;9.202;2023-04-16T00:52:55;9.50;1.00
9760;DHT22;4919;48.792;9.202;2023-04-16T00:55:40;9.50;1.00
9760;DHT22;4919;48.792;9.202;2023-04-16T00:58:25;9.50;1.00
9760;DHT22;4919;48.792;9.202;2023-04-16T01:01:10;9.50;1.00
9760;DHT22;4919;48.792;9.202;2023-04-16T01:03:55;9.50;1.00
9760;DHT22;4919;48.792;9.202;2023-04-16T01:06:40;9.50;1.00
9760;DHT22;4919;48.792;9.202;2023-04-16T01:09:25;9.50;1.00
9760;DHT22;4919;48.792;9.202;2023-04-16T01:12:09;9.50;1.00
9760;DHT22;4919;48.792;9.202;2023-04-16T01:14:54;9.50;1.00
9760;DHT22;4919;48.792;9.202;2023-04-16T01:17:39;9.50;1.00
9760;DHT22;4919;48.792;9.202;2023-04-16T01:20:24;9.50;1.00
9760;DHT22;4919;48.792;9.202;2023-04-16T01:23:09;9.50;1.00
9760;DHT22;4919;48.792;9.202;2023-04-16T01:25:54;9.40;1.00
9760;DHT22;4919;48.792;9.202;2023-04-16T01:28:39;9.50;1.00
9760;DHT22;4919;48.792;9.202;2023-04-16T01:31:23;9.40;1.00
9760;DHT22;4919;48.792;9.202;2023-04-16T01:34:08;9.40;1.00
9760;DHT22;4919;48.792;9.202;2023-04-16T01:36:53;9.40;1.00
9760;DHT22;4919;48.792;9.202;2023-04-16T01:39:38;9.40;1.00
9760;DHT22;4919;48.792;9.202;2023-04-16T01:42:23;9.40;1.00
9760;DHT22;4919;48.792;9.202;2023-04-16T01:45:08;9.40;1.00
9760;DHT22;4919;48.792;9.202;2023-04-16T01:47:53;9.50;1.00
9760;DHT22;4919;48.792;9.202;2023-04-16T01:50:38;9.50;1.00
9760;DHT22;4919;48.792;9.202;2023-04-16T01:53:23;9.40;1.00
9760;DHT22;4919;48.792;9.202;2023-04-16T01:56:08;9.40;1.00
9760;DHT22;4919;48.792;9.202;2023-04-16T01:58:52;9.50;1.00
9760;DHT22;4919;48.792;9.202;2023-04-16T02:01:37;9.50;1.00
9760;DHT22;4919;48.792;9.202;2023-04-16T02:04:22;9.50;1.00
9760;DHT22;4919;48.792;9.202;2023-04-16T02:07:07;9.50;1.00
9760;DHT22;4919;48.792;9.202;2023-04-16T02:09:52;9.50;1.00
9760;DHT22;4919;48.792;9.202;2023-04-16T02:12:37;9.50;1.00
9760;DHT22;4919;48.792;9.202;2023-04-16T02:15:22;9.50;1.00
9760;DHT22;4919;48.792;9.202;2023-04-16T02:18:07;9.50;1.00
9760;DHT22;4919;48.792;9.202;2023-04-16T02:20:52;9.50;1.00
9760;DHT22;4919;48.792;9.202;2023-04-16T02:23:36;9.60;1.00
9760;DHT22;4919;48.792;9.202;2023-04-16T02:26:21;9.50;1.00
9760;DHT22;4919;48.792;9.202;2023-04-16T02:29:06;9.60;1.00
9760;DHT22;4919;48.792;9.202;2023-04-16T02:31:51;9.60;1.00
9760;DHT22;4919;48.792;9.202;2023-04-16T02:34:36;9.50;1.00
9760;DHT22;4919;48.792;9.202;2023-04-16T02:37:21;9.50;1.00
9760;DHT22;4919;48.792;9.202;2023-04-16T02:40:06;9.50;1.00
9760;DHT22;4919;48.792;9.202;2023-04-16T02:42:52;9.50;1.00
9760;DHT22;4919;48.792;9.202;2023-04-16T02:45:37;9.50;1.00
9760;DHT22;4919;48.792;9.202;2023-04-16T02:48:22;9.50;1.00
9760;DHT22;4919;48.792;9.202;2023-04-16T02:51:06;9.50;1.00
9760;DHT22;4919;48.792;9.202;2023-04-16T02:53:51;9.50;1.00
9760;DHT22;4919;48.792;9.202;2023-04-16T02:56:36;9.60;1.00
9760;DHT22;4919;48.792;9.202;2023-04-16T02:59:21;9.50;1.00
9760;DHT22;4919;48.792;9.202;2023-04-16T03:02:06;9.50;1.00
9760;DHT22;4919;48.792;9.202;2023-04-16T03:04:51;9.60;1.00
9760;DHT22;4919;48.792;9.202;2023-04-16T03:07:36;9.60;1.00
9760;DHT22;4919;48.792;9.202;2023-04-16T03:10:21;9.60;1.00
9760;DHT22;4919;48.792;9.202;2023-04-16T03:13:06;9.50;1.00
9760;DHT22;4919;48.792;9.202;2023-04-16T03:15:50;9.60;1.00
9760;DHT22;4919;48.792;9.202;2023-04-16T03:18:35;9.60;1.00
9760;DHT22;4919;48.792;9.202;2023-04-16T03:21:20;9.60;1.00
9760;DHT22;4919;48.792;9.202;2023-04-16T03:24:05;9.60;1.00
9760;DHT22;4919;48.792;9.202;2023-04-16T03:26:50;9.60;1.00
9760;DHT22;4919;48.792;9.202;2023-04-16T03:29:38;9.50;1.00
9760;DHT22;4919;48.792;9.202;2023-04-16T03:32:23;9.60;1.00
9760;DHT22;4919;48.792;9.202;2023-04-16T03:35:08;9.60;1.00
9760;DHT22;4919;48.792;9.202;2023-04-16T03:37:53;9.60;1.00
9760;DHT22;4919;48.792;9.202;2023-04-16T03:40:38;9.50;1.00
9760;DHT22;4919;48.792;9.202;2023-04-16T03:43:23;9.50;1.00
9760;DHT22;4919;48.792;9.202;2023-04-16T03:46:08;9.50;1.00
9760;DHT22;4919;48.792;9.202;2023-04-16T03:48:53;9.50;1.00
9760;DHT22;4919;48.792;9.202;2023-04-16T03:51:38;9.50;1.00
9760;DHT22;4919;48.792;9.202;2023-04-16T03:54:22;9.50;1.00
9760;DHT22;4919;48.792;9.202;2023-04-16T03:57:07;9.50;1.00
9760;DHT22;4919;48.792;9.202;2023-04-16T03:59:52;9.50;1.00
9760;DHT22;4919;48.792;9.202;2023-04-16T04:02:37;9.40;1.00
9760;DHT22;4919;48.792;9.202;2023-04-16T04:05:22;9.40;1.00
9760;DHT22;4919;48.792;9.202;2023-04-16T04:08:08;9.40;1.00
9760;DHT22;4919;48.792;9.202;2023-04-16T04:10:52;9.40;1.00
9760;DHT22;4919;48.792;9.202;2023-04-16T04:13:37;9.30;1.00
9760;DHT22;4919;48.792;9.202;2023-04-16T04:16:22;9.30;1.00
9760;DHT22;4919;48.792;9.202;2023-04-16T04:19:07;9.30;1.00
9760;DHT22;4919;48.792;9.202;2023-04-16T04:21:52;9.30;1.00
9760;DHT22;4919;48.792;9.202;2023-04-16T04:24:37;9.30;1.00
9760;DHT22;4919;48.792;9.202;2023-04-16T04:27:22;9.30;1.00
9760;DHT22;4919;48.792;9.202;2023-04-16T04:30:07;9.30;1.00
9760;DHT22;4919;48.792;9.202;2023-04-16T04:32:52;9.30;1.00
9760;DHT22;4919;48.792;9.202;2023-04-16T04:35:37;9.30;1.00
9760;DHT22;4919;48.792;9.202;2023-04-16T04:38:22;9.20;1.00
9760;DHT22;4919;48.792;9.202;2023-04-16T04:41:06;9.20;1.00
9760;DHT22;4919;48.792;9.202;2023-04-16T04:43:51;9.20;1.00
9760;DHT22;4919;48.792;9.202;2023-04-16T04:46:36;9.20;1.00
9760;DHT22;4919;48.792;9.202;2023-04-16T04:49:21;9.20;1.00
9760;DHT22;4919;48.792;9.202;2023-04-16T04:52:07;9.20;1.00
9760;DHT22;4919;48.792;9.202;2023-04-16T04:54:52;9.30;1.00
9760;DHT22;4919;48.792;9.202;2023-04-16T04:57:36;9.20;1.00
9760;DHT22;4919;48.792;9.202;2023-04-16T05:00:21;9.30;1.00
9760;DHT22;4919;48.792;9.202;2023-04-16T05:03:09;9.20;1.00
9760;DHT22;4919;48.792;9.202;2023-04-16T05:05:54;9.20;1.00
9760;DHT22;4919;48.792;9.202;2023-04-16T05:08:39;9.30;1.00
9760;DHT22;4919;48.792;9.202;2023-04-16T05:11:23;9.30;1.00
9760;DHT22;4919;48.792;9.202;2023-04-16T05:14:08;9.30;1.00
9760;DHT22;4919;48.792;9.202;2023-04-16T05:16:53;9.30;1.00
9760;DHT22;4919;48.792;9.202;2023-04-16T05:19:38;9.30;1.00
9760;DHT22;4919;48.792;9.202;2023-04-16T05:22:23;9.20;1.00
9760;DHT22;4919;48.792;9.202;2023-04-16T05:25:08;9.30;1.00
9760;DHT22;4919;48.792;9.202;2023-04-16T05:27:53;9.30;1.00
9760;DHT22;4919;48.792;9.202;2023-04-16T05:30:38;9.30;1.00
9760;DHT22;4919;48.792;9.202;2023-04-16T05:33:22;9.30;1.00
9760;DHT22;4919;48.792;9.202;2023-04-16T05:36:07;9.20;1.00
9760;DHT22;4919;48.792;9.202;2023-04-16T05:38:52;9.30;1.00
9760;DHT22;4919;48.792;9.202;2023-04-16T05:41:37;9.30;1.00
9760;DHT22;4919;48.792;9.202;2023-04-16T05:44:21;9.30;1.00
9760;DHT22;4919;48.792;9.202;2023-04-16T05:47:06;9.30;1.00
9760;DHT22;4919;48.792;9.202;2023-04-16T05:49:51;9.30;1.00
9760;DHT22;4919;48.792;9.202;2023-04-16T05:52:36;9.30;1.00
9760;DHT22;4919;48.792;9.202;2023-04-16T05:55:21;9.20;1.00
9760;DHT22;4919;48.792;9.202;2023-04-16T05:58:06;9.30;1.00
9760;DHT22;4919;48.792;9.202;2023-04-16T06:00:51;9.30;1.00
9760;DHT22;4919;48.792;9.202;2023-04-16T06:03:36;9.30;1.00
9760;DHT22;4919;48.792;9.202;2023-04-16T06:06:21;9.20;1.00
9760;DHT22;4919;48.792;9.202;2023-04-16T06:09:06;9.30;1.00
9760;DHT22;4919;48.792;9.202;2023-04-16T06:11:50;9.30;1.00
9760;DHT22;4919;48.792;9.202;2023-04-16T06:14:35;9.20;1.00
9760;DHT22;4919;48.792;9.202;2023-04-16T06:17:20;9.30;1.00
9760;DHT22;4919;48.792;9.202;2023-04-16T06:20:05;9.30;1.00
9760;DHT22;4919;48.792;9.202;2023-04-16T06:22:50;9.30;1.00
9760;DHT22;4919;48.792;9.202;2023-04-16T06:25:35;9.30;1.00
9760;DHT22;4919;48.792;9.202;2023-04-16T06:28:20;9.30;1.00
9760;DHT22;4919;48.792;9.202;2023-04-16T06:31:05;9.30;1.00
9760;DHT22;4919;48.792;9.202;2023-04-16T06:33:50;9.30;1.00
9760;DHT22;4919;48.792;9.202;2023-04-16T06:36:35;9.30;1.00
9760;DHT22;4919;48.792;9.202;2023-04-16T06:39:20;9.30;1.00
9760;DHT22;4919;48.792;9.202;2023-04-16T06:42:04;9.30;1.00
9760;DHT22;4919;48.792;9.202;2023-04-16T06:44:49;9.40;1.00
9760;DHT22;4919;48.792;9.202;2023-04-16T06:47:34;9.40;1.00
9760;DHT22;4919;48.792;9.202;2023-04-16T06:50:19;9.40;99.90
9760;DHT22;4919;48.792;9.202;2023-04-16T06:53:04;9.40;99.90
9760;DHT22;4919;48.792;9.202;2023-04-16T06:55:49;9.30;99.90
9760;DHT22;4919;48.792;9.202;2023-04-16T06:58:33;9.40;99.90
9760;DHT22;4919;48.792;9.202;2023-04-16T07:01:18;9.40;99.90
9760;DHT22;4919;48.792;9.202;2023-04-16T07:04:03;9.50;99.90
9760;DHT22;4919;48.792;9.202;2023-04-16T07:06:48;9.40;99.90
9760;DHT22;4919;48.792;9.202;2023-04-16T07:09:33;9.50;99.90
9760;DHT22;4919;48.792;9.202;2023-04-16T07:12:19;9.50;99.90
9760;DHT22;4919;48.792;9.202;2023-04-16T07:15:04;9.60;99.90
9760;DHT22;4919;48.792;9.202;2023-04-16T07:17:49;9.50;99.90
9760;DHT22;4919;48.792;9.202;2023-04-16T07:20:34;9.60;99.90
9760;DHT22;4919;48.792;9.202;2023-04-16T07:23:19;9.50;99.90
9760;DHT22;4919;48.792;9.202;2023-04-16T07:26:04;9.50;99.90
9760;DHT22;4919;48.792;9.202;2023-04-16T07:28:49;9.50;99.90
9760;DHT22;4919;48.792;9.202;2023-04-16T07:31:34;9.50;99.90
9760;DHT22;4919;48.792;9.202;2023-04-16T07:34:19;9.50;99.90
9760;DHT22;4919;48.792;9.202;2023-04-16T07:37:03;9.60;99.90
9760;DHT22;4919;48.792;9.202;2023-04-16T07:39:48;9.60;99.90
9760;DHT22;4919;48.792;9.202;2023-04-16T07:42:33;9.70;99.90
9760;DHT22;4919;48.792;9.202;2023-04-16T07:45:18;9.70;99.90
9760;DHT22;4919;48.792;9.202;2023-04-16T07:48:03;9.70;99.90
9760;DHT22;4919;48.792;9.202;2023-04-16T07:50:48;9.70;99.90
9760;DHT22;4919;48.792;9.202;2023-04-16T07:53:33;9.70;99.90
9760;DHT22;4919;48.792;9.202;2023-04-16T07:56:18;9.70;99.90
9760;DHT22;4919;48.792;9.202;2023-04-16T07:59:02;9.70;99.90
9760;DHT22;4919;48.792;9.202;2023-04-16T08:01:47;9.70;99.90
9760;DHT22;4919;48.792;9.202;2023-04-16T08:04:32;9.80;99.90
9760;DHT22;4919;48.792;9.202;2023-04-16T08:07:17;9.90;99.90
9760;DHT22;4919;48.792;9.202;2023-04-16T08:10:02;9.90;99.90
9760;DHT22;4919;48.792;9.202;2023-04-16T08:12:47;9.80;99.90
9760;DHT22;4919;48.792;9.202;2023-04-16T08:15:32;9.90;99.90
9760;DHT22;4919;48.792;9.202;2023-04-16T08:18:18;9.80;99.90
9760;DHT22;4919;48.792;9.202;2023-04-16T08:21:03;9.80;99.90
9760;DHT22;4919;48.792;9.202;2023-04-16T08:23:47;9.80;99.90
9760;DHT22;4919;48.792;9.202;2023-04-16T08:26:32;9.90;99.90
9760;DHT22;4919;48.792;9.202;2023-04-16T08:29:17;9.90;99.90
9760;DHT22;4919;48.792;9.202;2023-04-16T08:32:02;9.80;99.90
9760;DHT22;4919;48.792;9.202;2023-04-16T08:34:47;9.80;99.90
9760;DHT22;4919;48.792;9.202;2023-04-16T08:37:32;9.90;99.90
9760;DHT22;4919;48.792;9.202;2023-04-16T08:40:17;9.90;99.90
9760;DHT22;4919;48.792;9.202;2023-04-16T08:43:02;9.90;99.90
9760;DHT22;4919;48.792;9.202;2023-04-16T08:45:50;9.80;99.90
9760;DHT22;4919;48.792;9.202;2023-04-16T08:48:37;9.80;99.90
9760;DHT22;4919;48.792;9.202;2023-04-16T08:51:24;9.90;99.90
9760;DHT22;4919;48.792;9.202;2023-04-16T08:54:14;9.80;99.90
9760;DHT22;4919;48.792;9.202;2023-04-16T08:57:05;9.90;99.90
9760;DHT22;4919;48.792;9.202;2023-04-16T08:59:50;9.90;99.90
9760;DHT22;4919;48.792;9.202;2023-04-16T09:02:37;10.00;99.90
9760;DHT22;4919;48.792;9.202;2023-04-16T09:05:22;10.00;99.90
9760;DHT22;4919;48.792;9.202;2023-04-16T09:08:07;10.00;99.90
9760;DHT22;4919;48.792;9.202;2023-04-16T09:10:52;10.00;99.90
9760;DHT22;4919;48.792;9.202;2023-04-16T09:13:38;10.10;99.90
9760;DHT22;4919;48.792;9.202;2023-04-16T09:16:24;10.00;99.90
9760;DHT22;4919;48.792;9.202;2023-04-16T09:19:08;10.00;99.90
9760;DHT22;4919;48.792;9.202;2023-04-16T09:21:53;10.00;99.90
9760;DHT22;4919;48.792;9.202;2023-04-16T09:24:38;9.90;99.90
9760;DHT22;4919;48.792;9.202;2023-04-16T09:27:24;9.80;99.90
9760;DHT22;4919;48.792;9.202;2023-04-16T09:30:22;9.90;99.90
9760;DHT22;4919;48.792;9.202;2023-04-16T09:33:18;9.80;99.90
9760;DHT22;4919;48.792;9.202;2023-04-16T09:36:03;9.90;99.90
9760;DHT22;4919;48.792;9.202;2023-04-16T09:38:50;9.80;99.90
9760;DHT22;4919;48.792;9.202;2023-04-16T09:41:35;9.80;99.90
9760;DHT22;4919;48.792;9.202;2023-04-16T09:44:37;9.80;99.90
9760;DHT22;4919;48.792;9.202;2023-04-16T09:47:22;9.90;99.90
9760;DHT22;4919;48.792;9.202;2023-04-16T09:50:07;9.90;99.90
9760;DHT22;4919;48.792;9.202;2023-04-16T09:52:52;10.00;99.90
9760;DHT22;4919;48.792;9.202;2023-04-16T09:55:37;10.10;99.90
9760;DHT22;4919;48.792;9.202;2023-04-16T09:58:23;10.10;99.90
9760;DHT22;4919;48.792;9.202;2023-04-16T10:01:09;10.20;99.90
9760;DHT22;4919;48.792;9.202;2023-04-16T10:03:54;10.30;99.90
9760;DHT22;4919;48.792;9.202;2023-04-16T10:06:39;10.50;99.90
9760;DHT22;4919;48.792;9.202;2023-04-16T10:09:24;10.50;99.90
9760;DHT22;4919;48.792;9.202;2023-04-16T10:12:09;10.50;99.90
9760;DHT22;4919;48.792;9.202;2023-04-16T10:14:54;10.60;99.90
9760;DHT22;4919;48.792;9.202;2023-04-16T10:17:39;10.60;99.90
9760;DHT22;4919;48.792;9.202;2023-04-16T10:20:25;10.70;99.90
9760;DHT22;4919;48.792;9.202;2023-04-16T10:23:10;10.80;97.70
9760;DHT22;4919;48.792;9.202;2023-04-16T10:25:57;11.00;99.90
9760;DHT22;4919;48.792;9.202;2023-04-16T10:28:43;11.20;99.90
9760;DHT22;4919;48.792;9.202;2023-04-16T10:31:29;11.20;15.60
9760;DHT22;4919;48.792;9.202;2023-04-16T10:34:14;11.00;1.00
9760;DHT22;4919;48.792;9.202;2023-04-16T10:37:00;11.10;1.00
9760;DHT22;4919;48.792;9.202;2023-04-16T10:39:44;11.10;1.00
9760;DHT22;4919;48.792;9.202;2023-04-16T10:42:30;11.00;1.00
9760;DHT22;4919;48.792;9.202;2023-04-16T10:45:15;10.80;1.00
9760;DHT22;4919;48.792;9.202;2023-04-16T10:48:05;10.70;1.00
9760;DHT22;4919;48.792;9.202;2023-04-16T10:50:55;10.70;1.00
9760;DHT22;4919;48.792;9.202;2023-04-16T10:53:40;10.60;1.00
9760;DHT22;4919;48.792;9.202;2023-04-16T10:56:25;10.50;1.00
9760;DHT22;4919;48.792;9.202;2023-04-16T10:59:10;10.50;1.00
9760;DHT22;4919;48.792;9.202;2023-04-16T11:01:58;10.50;1.00
9760;DHT22;4919;48.792;9.202;2023-04-16T11:04:44;10.50;1.00
9760;DHT22;4919;48.792;9.202;2023-04-16T11:07:33;10.50;1.00
9760;DHT22;4919;48.792;9.202;2023-04-16T11:10:18;10.50;1.00
9760;DHT22;4919;48.792;9.202;2023-04-16T11:13:05;10.40;1.00
9760;DHT22;4919;48.792;9.202;2023-04-16T11:15:50;10.40;1.00
9760;DHT22;4919;48.792;9.202;2023-04-16T11:18:35;10.50;1.00
9760;DHT22;4919;48.792;9.202;2023-04-16T11:21:21;10.40;1.00
9760;DHT22;4919;48.792;9.202;2023-04-16T11:24:11;10.50;1.00
9760;DHT22;4919;48.792;9.202;2023-04-16T11:26:55;10.50;1.00
9760;DHT22;4919;48.792;9.202;2023-04-16T11:29:41;10.40;1.00
9760;DHT22;4919;48.792;9.202;2023-04-16T11:32:25;10.40;1.00
9760;DHT22;4919;48.792;9.202;2023-04-16T11:35:17;10.50;1.00
9760;DHT22;4919;48.792;9.202;2023-04-16T11:38:02;10.50;1.00
9760;DHT22;4919;48.792;9.202;2023-04-16T11:40:48;10.60;1.00
9760;DHT22;4919;48.792;9.202;2023-04-16T11:43:33;10.70;1.00
9760;DHT22;4919;48.792;9.202;2023-04-16T11:46:18;10.70;1.00
9760;DHT22;4919;48.792;9.202;2023-04-16T11:49:03;10.70;1.00
9760;DHT22;4919;48.792;9.202;2023-04-16T11:51:48;10.70;1.00
9760;DHT22;4919;48.792;9.202;2023-04-16T11:54:32;10.70;1.00
9760;DHT22;4919;48.792;9.202;2023-04-16T11:57:28;10.70;1.00
9760;DHT22;4919;48.792;9.202;2023-04-16T12:00:14;10.70;1.00
9760;DHT22;4919;48.792;9.202;2023-04-16T12:02:58;10.80;1.00
9760;DHT22;4919;48.792;9.202;2023-04-16T12:05:43;10.90;1.00
9760;DHT22;4919;48.792;9.202;2023-04-16T12:08:28;11.00;1.00
9760;DHT22;4919;48.792;9.202;2023-04-16T12:11:13;11.10;1.00
9760;DHT22;4919;48.792;9.202;2023-04-16T12:14:11;11.20;1.00
9760;DHT22;4919;48.792;9.202;2023-04-16T12:17:18;11.20;1.00
9760;DHT22;4919;48.792;9.202;2023-04-16T12:20:11;11.30;1.00
9760;DHT22;4919;48.792;9.202;2023-04-16T12:22:56;11.30;1.00
9760;DHT22;4919;48.792;9.202;2023-04-16T12:25:42;11.30;1.00
9760;DHT22;4919;48.792;9.202;2023-04-16T12:28:28;11.20;1.00
9760;DHT22;4919;48.792;9.202;2023-04-16T12:31:13;11.20;1.00
9760;DHT22;4919;48.792;9.202;2023-04-16T12:34:01;11.10;1.00
9760;DHT22;4919;48.792;9.202;2023-04-16T12:36:48;11.10;1.00
9760;DHT22;4919;48.792;9.202;2023-04-16T12:39:33;11.00;1.00
9760;DHT22;4919;48.792;9.202;2023-04-16T12:42:18;11.00;1.00
9760;DHT22;4919;48.792;9.202;2023-04-16T12:45:04;11.00;1.00
9760;DHT22;4919;48.792;9.202;2023-04-16T12:47:48;11.00;1.00
9760;DHT22;4919;48.792;9.202;2023-04-16T12:50:33;11.10;1.00
9760;DHT22;4919;48.792;9.202;2023-04-16T12:53:18;11.10;1.00
9760;DHT22;4919;48.792;9.202;2023-04-16T12:56:03;11.20;1.00
9760;DHT22;4919;48.792;9.202;2023-04-16T12:58:48;11.20;1.00
9760;DHT22;4919;48.792;9.202;2023-04-16T13:01:33;11.10;1.00
9760;DHT22;4919;48.792;9.202;2023-04-16T13:04:17;11.00;1.00
9760;DHT22;4919;48.792;9.202;2023-04-16T13:07:02;10.90;1.00
9760;DHT22;4919;48.792;9.202;2023-04-16T13:09:47;10.80;1.00
9760;DHT22;4919;48.792;9.202;2023-04-16T13:12:32;10.80;1.00
9760;DHT22;4919;48.792;9.202;2023-04-16T13:15:17;10.80;1.00
9760;DHT22;4919;48.792;9.202;2023-04-16T13:18:02;10.70;1.00
9760;DHT22;4919;48.792;9.202;2023-04-16T13:20:47;10.70;1.00
9760;DHT22;4919;48.792;9.202;2023-04-16T13:23:32;10.60;1.00
9760;DHT22;4919;48.792;9.202;2023-04-16T13:26:17;10.50;1.00
9760;DHT22;4919;48.792;9.202;2023-04-16T13:29:02;10.50;1.00
9760;DHT22;4919;48.792;9.202;2023-04-16T13:31:47;10.50;1.00
9760;DHT22;4919;48.792;9.202;2023-04-16T13:34:32;10.40;1.00
9760;DHT22;4919;48.792;9.202;2023-04-16T13:37:17;10.30;1.00
9760;DHT22;4919;48.792;9.202;2023-04-16T13:40:02;10.20;1.00
9760;DHT22;4919;48.792;9.202;2023-04-16T13:42:47;10.20;1.00
9760;DHT22;4919;48.792;9.202;2023-04-16T13:45:32;10.00;1.00
9760;DHT22;4919;48.792;9.202;2023-04-16T13:48:17;10.00;1.00
9760;DHT22;4919;48.792;9.202;2023-04-16T13:51:02;9.90;1.00
9760;DHT22;4919;48.792;9.202;2023-04-16T13:53:47;9.90;1.00
9760;DHT22;4919;48.792;9.202;2023-04-16T13:56:32;10.00;1.00
9760;DHT22;4919;48.792;9.202;2023-04-16T13:59:17;10.00;1.00
9760;DHT22;4919;48.792;9.202;2023-04-16T14:02:02;10.20;1.00
9760;DHT22;4919;48.792;9.202;2023-04-16T14:04:47;10.20;1.00
9760;DHT22;4919;48.792;9.202;2023-04-16T14:07:33;10.30;1.00
9760;DHT22;4919;48.792;9.202;2023-04-16T14:10:18;10.40;1.00
9760;DHT22;4919;48.792;9.202;2023-04-16T14:13:02;10.50;1.00
9760;DHT22;4919;48.792;9.202;2023-04-16T14:15:47;10.50;1.00
9760;DHT22;4919;48.792;9.202;2023-04-16T14:18:32;10.60;1.00
9760;DHT22;4919;48.792;9.202;2023-04-16T14:21:17;10.60;1.00
9760;DHT22;4919;48.792;9.202;2023-04-16T14:24:02;10.60;1.00
9760;DHT22;4919;48.792;9.202;2023-04-16T14:26:47;10.70;1.00
9760;DHT22;4919;48.792;9.202;2023-04-16T14:29:32;10.70;1.00
9760;DHT22;4919;48.792;9.202;2023-04-16T14:32:17;10.80;1.00
9760;DHT22;4919;48.792;9.202;2023-04-16T14:35:02;10.70;1.00
9760;DHT22;4919;48.792;9.202;2023-04-16T14:37:46;10.80;1.00
9760;DHT22;4919;48.792;9.202;2023-04-16T14:40:31;10.80;1.00
9760;DHT22;4919;48.792;9.202;2023-04-16T14:43:17;10.80;1.00
9760;DHT22;4919;48.792;9.202;2023-04-16T14:46:02;10.90;1.00
9760;DHT22;4919;48.792;9.202;2023-04-16T14:48:47;11.00;1.00
9760;DHT22;4919;48.792;9.202;2023-04-16T14:51:32;11.00;1.00
9760;DHT22;4919;48.792;9.202;2023-04-16T14:54:17;11.00;1.00
9760;DHT22;4919;48.792;9.202;2023-04-16T14:57:02;11.10;1.00
9760;DHT22;4919;48.792;9.202;2023-04-16T14:59:47;11.10;1.00
9760;DHT22;4919;48.792;9.202;2023-04-16T15:02:33;11.00;1.00
9760;DHT22;4919;48.792;9.202;2023-04-16T15:05:17;11.00;1.00
9760;DHT22;4919;48.792;9.202;2023-04-16T15:08:02;11.00;1.00
9760;DHT22;4919;48.792;9.202;2023-04-16T15:10:47;10.90;1.00
9760;DHT22;4919;48.792;9.202;2023-04-16T15:13:32;10.80;1.00
9760;DHT22;4919;48.792;9.202;2023-04-16T15:16:17;10.70;1.00
9760;DHT22;4919;48.792;9.202;2023-04-16T15:19:02;10.60;1.00
9760;DHT22;4919;48.792;9.202;2023-04-16T15:21:47;10.50;1.00
9760;DHT22;4919;48.792;9.202;2023-04-16T15:24:32;10.40;1.00
9760;DHT22;4919;48.792;9.202;2023-04-16T15:27:17;10.40;1.00
9760;DHT22;4919;48.792;9.202;2023-04-16T15:30:02;10.30;1.00
9760;DHT22;4919;48.792;9.202;2023-04-16T15:32:47;10.30;1.00
9760;DHT22;4919;48.792;9.202;2023-04-16T15:35:32;10.20;1.00
9760;DHT22;4919;48.792;9.202;2023-04-16T15:38:17;10.20;1.00
9760;DHT22;4919;48.792;9.202;2023-04-16T15:41:02;10.10;1.00
9760;DHT22;4919;48.792;9.202;2023-04-16T15:43:47;10.00;1.00
9760;DHT22;4919;48.792;9.202;2023-04-16T15:46:32;10.00;1.00
9760;DHT22;4919;48.792;9.202;2023-04-16T15:49:17;10.00;1.00
9760;DHT22;4919;48.792;9.202;2023-04-16T15:52:02;10.00;1.00
9760;DHT22;4919;48.792;9.202;2023-04-16T15:54:46;10.00;1.00
9760;DHT22;4919;48.792;9.202;2023-04-16T15:57:32;10.00;1.00
9760;DHT22;4919;48.792;9.202;2023-04-16T16:00:17;10.00;1.00
9760;DHT22;4919;48.792;9.202;2023-04-16T16:03:02;10.10;1.00
9760;DHT22;4919;48.792;9.202;2023-04-16T16:05:47;10.00;1.00
9760;DHT22;4919;48.792;9.202;2023-04-16T16:08:32;10.00;1.00
9760;DHT22;4919;48.792;9.202;2023-04-16T16:11:17;10.00;1.00
9760;DHT22;4919;48.792;9.202;2023-04-16T16:14:02;10.00;1.00
9760;DHT22;4919;48.792;9.202;2023-04-16T16:16:47;10.00;1.00
9760;DHT22;4919;48.792;9.202;2023-04-16T16:19:32;9.90;1.00
9760;DHT22;4919;48.792;9.202;2023-04-16T16:22:18;10.00;1.00
9760;DHT22;4919;48.792;9.202;2023-04-16T16:25:03;9.90;1.00
9760;DHT22;4919;48.792;9.202;2023-04-16T16:27:48;9.90;1.00
9760;DHT22;4919;48.792;9.202;2023-04-16T16:30:32;10.00;1.00
9760;DHT22;4919;48.792;9.202;2023-04-16T16:33:17;9.90;1.00
9760;DHT22;4919;48.792;9.202;2023-04-16T16:36:02;9.90;1.00
9760;DHT22;4919;48.792;9.202;2023-04-16T16:38:47;9.90;1.00
9760;DHT22;4919;48.792;9.202;2023-04-16T16:41:32;9.90;1.00
9760;DHT22;4919;48.792;9.202;2023-04-16T16:44:20;9.80;1.00
9760;DHT22;4919;48.792;9.202;2023-04-16T16:47:05;9.80;1.00
9760;DHT22;4919;48.792;9.202;2023-04-16T16:49:50;9.70;1.00
9760;DHT22;4919;48.792;9.202;2023-04-16T16:52:35;9.70;1.00
9760;DHT22;4919;48.792;9.202;2023-04-16T16:55:20;9.70;1.00
9760;DHT22;4919;48.792;9.202;2023-04-16T16:58:04;9.70;1.00
9760;DHT22;4919;48.792;9.202;2023-04-16T17:00:49;9.70;1.00
9760;DHT22;4919;48.792;9.202;2023-04-16T17:03:34;9.70;1.00
9760;DHT22;4919;48.792;9.202;2023-04-16T17:06:19;9.70;1.00
9760;DHT22;4919;48.792;9.202;2023-04-16T17:09:04;9.60;1.00
9760;DHT22;4919;48.792;9.202;2023-04-16T17:11:49;9.60;1.00
9760;DHT22;4919;48.792;9.202;2023-04-16T17:14:34;9.60;1.00
9760;DHT22;4919;48.792;9.202;2023-04-16T17:17:19;9.50;1.00
9760;DHT22;4919;48.792;9.202;2023-04-16T17:20:05;9.60;1.00
9760;DHT22;4919;48.792;9.202;2023-04-16T17:22:50;9.50;1.00
9760;DHT22;4919;48.792;9.202;2023-04-16T17:25:34;9.50;1.00
9760;DHT22;4919;48.792;9.202;2023-04-16T17:28:19;9.50;1.00
9760;DHT22;4919;48.792;9.202;2023-04-16T17:31:05;9.50;1.00
9760;DHT22;4919;48.792;9.202;2023-04-16T17:33:50;9.50;1.00
9760;DHT22;4919;48.792;9.202;2023-04-16T17:36:35;9.40;1.00
9760;DHT22;4919;48.792;9.202;2023-04-16T17:39:19;9.40;1.00
9760;DHT22;4919;48.792;9.202;2023-04-16T17:42:04;9.40;1.00
9760;DHT22;4919;48.792;9.202;2023-04-16T17:44:49;9.30;1.00
9760;DHT22;4919;48.792;9.202;2023-04-16T17:47:34;9.30;1.00
9760;DHT22;4919;48.792;9.202;2023-04-16T17:50:19;9.30;1.00
9760;DHT22;4919;48.792;9.202;2023-04-16T17:53:04;9.30;1.00
9760;DHT22;4919;48.792;9.202;2023-04-16T17:55:50;9.30;1.00
9760;DHT22;4919;48.792;9.202;2023-04-16T17:58:35;9.20;1.00
9760;DHT22;4919;48.792;9.202;2023-04-16T18:01:20;9.20;1.00
9760;DHT22;4919;48.792;9.202;2023-04-16T18:04:05;9.20;1.00
9760;DHT22;4919;48.792;9.202;2023-04-16T18:06:50;9.20;1.00
9760;DHT22;4919;48.792;9.202;2023-04-16T18:09:35;9.20;1.00
9760;DHT22;4919;48.792;9.202;2023-04-16T18:12:20;9.20;1.00
9760;DHT22;4919;48.792;9.202;2023-04-16T18:15:05;9.20;1.00
9760;DHT22;4919;48.792;9.202;2023-04-16T18:17:50;9.10;1.00
9760;DHT22;4919;48.792;9.202;2023-04-16T18:20:35;9.10;1.00
9760;DHT22;4919;48.792;9.202;2023-04-16T18:23:19;9.10;1.00